Hovedside
METAR-TAF:

METAR-TAF

Lufthavner :

Kuusamo lufthavn

Kuusamo, Finland

breddegrad: 65-58N, lengdegrad: 029-11E, høyde over havet: 262 m

Gjeldene værobservasjon

Denne rapporten ble laget for 14 minutter siden, klokken 17:20 UTC
Vind 7 kt fra Sør-sørvest
Temperatur 0°C
Luftfuktighet 100%
Trykk 1009 hPa
Sikt: 4700 m
Overskyet i en høyde av 200 ft
dis

METAR: EFKS 181720Z 20007KT 4700 BR OVC002 00/00 Q1009

Tid: 20:34 (17:34 UTC)

Varsel

Denne rapporten ble laget for 1 time og 40 minutter siden, klokken 15:54 UTC
Varsel gyldig fra 18. klokken 15 UTC til 18. klokken 20 UTC
Vind 6 kt fra Sør
Sikt: 8000 m
Overskyet i en høyde av 300 ft
lett snø
Midlertidig
fra 18. klokken 17 UTC til 18. klokken 20 UTC
Sikt: 2000 m
Brutte skyer i en høyde av 500 ft
underkjølt yr

TAF: EFKS 181554Z 1815/1820 18006KT 8000 -SN OVC003 TEMPO 1817/1820 2000 FZDZ BKN005

Værobservasjoner og værvarsel for over 4000 flyplasser (METAR- og TAF-rapporter).

Tilgjengelige stasjoner er representert av de røde og gule prikkene på kartet.

Hold musepekeren over prikken for å se navnet på stasjonen.

Klikk så for å se værobservasjoner og -varsler.

For å forandre kartet kan du klikke på den grønne knappen med svart kryss for å zoome inn, på den grønne knappen med strek for å zoome ut, eller på de grønne pilene for å se tilstøtende kart.


METAR-TAF: